createdAt,value
2018-07-17T00:01:39.392Z,6.90
2018-07-17T00:04:42.607Z,6.70
2018-07-17T00:07:45.785Z,6.73
2018-07-17T00:10:49.044Z,6.63
2018-07-17T00:13:52.299Z,7.27
2018-07-17T00:16:55.513Z,7.43
2018-07-17T00:19:58.719Z,7.23
2018-07-17T00:23:01.906Z,7.20
2018-07-17T00:26:05.259Z,7.47
2018-07-17T00:29:08.508Z,7.10
2018-07-17T00:32:11.698Z,6.70
2018-07-17T00:35:14.899Z,7.47
2018-07-17T00:38:18.277Z,7.60
2018-07-17T00:41:21.443Z,7.80
2018-07-17T00:44:24.679Z,7.80
2018-07-17T00:47:27.885Z,7.80
2018-07-17T00:50:31.082Z,7.57
2018-07-17T00:53:34.287Z,7.57
2018-07-17T00:56:37.474Z,7.93
2018-07-17T00:59:40.690Z,8.10
2018-07-17T01:02:49.601Z,8.13
2018-07-17T01:05:58.142Z,8.40
2018-07-17T01:09:06.641Z,8.13
2018-07-17T01:12:12.878Z,7.97
2018-07-17T01:15:25.514Z,8.63
2018-07-17T01:18:28.829Z,7.40
2018-07-17T01:21:31.865Z,6.70
2018-07-17T01:24:35.114Z,7.47
2018-07-17T01:27:38.101Z,6.90
2018-07-17T01:30:41.108Z,7.10
2018-07-17T01:33:44.313Z,6.90
2018-07-17T01:36:48.325Z,6.97
2018-07-17T01:39:51.565Z,7.20
2018-07-17T01:42:54.729Z,6.90
2018-07-17T01:45:58.030Z,7.10
2018-07-17T01:49:01.193Z,7.40
2018-07-17T01:52:04.501Z,7.60
2018-07-17T01:55:07.804Z,7.27
2018-07-17T01:58:11.143Z,7.00
2018-07-17T02:01:14.333Z,7.57
2018-07-17T02:04:17.470Z,6.90
2018-07-17T02:07:20.693Z,7.37
2018-07-17T02:10:23.875Z,10.50
2018-07-17T02:13:27.080Z,7.60
2018-07-17T02:16:30.271Z,7.07
2018-07-17T02:19:33.487Z,7.63
2018-07-17T02:22:36.646Z,7.73
2018-07-17T02:25:39.858Z,9.53
2018-07-17T02:28:43.059Z,8.07
2018-07-17T02:31:46.353Z,10.20
2018-07-17T02:34:49.706Z,10.43
2018-07-17T02:37:52.950Z,10.93
2018-07-17T02:40:56.454Z,10.13
2018-07-17T02:43:59.650Z,9.60
2018-07-17T02:47:02.872Z,10.37
2018-07-17T02:50:06.084Z,8.93
2018-07-17T02:53:09.246Z,8.30
2018-07-17T02:56:13.044Z,8.03
2018-07-17T02:59:16.299Z,8.17
2018-07-17T03:02:19.542Z,11.30
2018-07-17T03:05:22.839Z,12.80
2018-07-17T03:08:26.048Z,11.10
2018-07-17T03:11:29.115Z,9.93
2018-07-17T03:14:32.227Z,11.13
2018-07-17T03:17:35.286Z,9.27
2018-07-17T03:20:38.385Z,10.23
2018-07-17T03:23:41.450Z,9.53
2018-07-17T03:26:44.543Z,9.73
2018-07-17T03:29:47.638Z,8.53
2018-07-17T03:32:50.695Z,8.60
2018-07-17T03:35:53.568Z,8.77
2018-07-17T03:38:56.634Z,8.40
2018-07-17T03:41:59.728Z,8.10
2018-07-17T03:45:02.802Z,7.83
2018-07-17T03:48:05.892Z,8.43
2018-07-17T03:51:08.939Z,8.07
2018-07-17T03:54:11.993Z,8.10
2018-07-17T03:57:15.099Z,8.07
2018-07-17T04:00:18.217Z,8.47
2018-07-17T04:03:21.092Z,8.00
2018-07-17T04:06:24.161Z,7.97
2018-07-17T04:09:27.244Z,8.20
2018-07-17T04:12:30.370Z,8.17
2018-07-17T04:15:33.448Z,7.73
2018-07-17T04:18:36.516Z,18.43
2018-07-17T04:21:39.625Z,12.90
2018-07-17T04:24:42.709Z,8.23
2018-07-17T04:27:45.785Z,8.53
2018-07-17T04:30:48.897Z,8.07
2018-07-17T04:33:51.941Z,11.20
2018-07-17T04:36:55.029Z,12.40
2018-07-17T04:39:58.097Z,8.50
2018-07-17T04:43:01.181Z,7.60
2018-07-17T04:46:04.418Z,8.17
2018-07-17T04:49:07.513Z,8.07
2018-07-17T04:52:10.591Z,7.87
2018-07-17T04:55:13.680Z,7.87
2018-07-17T04:58:16.737Z,7.50
2018-07-17T05:01:20.013Z,7.77
2018-07-17T05:04:23.067Z,7.83
2018-07-17T05:07:26.158Z,7.67
2018-07-17T05:10:29.249Z,7.67
2018-07-17T05:13:32.346Z,7.13
2018-07-17T05:16:35.462Z,7.70
2018-07-17T05:19:38.517Z,7.27
2018-07-17T05:22:41.598Z,7.13
2018-07-17T05:25:44.693Z,7.57
2018-07-17T05:28:47.817Z,6.73
2018-07-17T05:31:51.117Z,5.90
2018-07-17T05:34:54.224Z,6.40
2018-07-17T05:37:57.305Z,5.50
2018-07-17T05:41:00.382Z,5.13
2018-07-17T05:44:03.448Z,5.33
2018-07-17T05:47:06.689Z,5.50
2018-07-17T05:50:11.205Z,5.47
2018-07-17T05:53:14.289Z,5.63
2018-07-17T05:56:17.363Z,5.53
2018-07-17T05:59:20.409Z,5.53
2018-07-17T06:02:23.493Z,4.85
2018-07-17T06:05:26.560Z,5.20
2018-07-17T06:08:29.619Z,5.35
2018-07-17T06:11:32.689Z,4.95
2018-07-17T06:14:35.740Z,5.03
2018-07-17T06:17:38.810Z,4.95
2018-07-17T06:20:41.942Z,4.67
2018-07-17T06:23:45.083Z,4.90
2018-07-17T06:26:49.131Z,4.40
2018-07-17T06:29:52.369Z,4.62
2018-07-17T06:32:55.604Z,5.80
2018-07-17T06:35:58.717Z,5.00
2018-07-17T06:39:01.874Z,5.30
2018-07-17T06:42:05.017Z,4.92
2018-07-17T06:45:07.946Z,5.35
2018-07-17T06:48:11.809Z,5.33
2018-07-17T06:51:14.788Z,4.97
2018-07-17T06:54:29.806Z,4.90
2018-07-17T06:57:33.030Z,5.17
2018-07-17T07:00:36.218Z,5.05
2018-07-17T07:03:39.467Z,4.35
2018-07-17T07:06:42.411Z,4.47
2018-07-17T07:09:45.805Z,4.50
2018-07-17T07:12:49.067Z,5.10
2018-07-17T07:15:52.290Z,4.70
2018-07-17T07:18:55.502Z,4.65
2018-07-17T07:21:58.704Z,5.30
2018-07-17T07:25:01.882Z,5.03
2018-07-17T07:28:05.277Z,5.22
2018-07-17T07:31:13.390Z,4.97
2018-07-17T07:34:16.662Z,5.47
2018-07-17T07:37:19.949Z,5.40
2018-07-17T07:40:23.092Z,4.95
2018-07-17T07:43:26.329Z,4.95
2018-07-17T07:46:29.474Z,5.17
2018-07-17T07:49:32.569Z,4.92
2018-07-17T07:52:35.862Z,5.17
2018-07-17T07:55:39.151Z,5.10
2018-07-17T07:58:42.202Z,4.53
2018-07-17T08:01:45.317Z,5.53
2018-07-17T08:04:48.408Z,5.37
2018-07-17T08:07:51.482Z,4.78
2018-07-17T08:10:54.567Z,4.92
2018-07-17T08:13:57.621Z,5.03
2018-07-17T08:17:00.699Z,4.85
2018-07-17T08:20:05.876Z,4.60
2018-07-17T08:23:08.935Z,4.50
2018-07-17T08:26:11.990Z,4.47
2018-07-17T08:29:15.259Z,4.75
2018-07-17T08:32:18.357Z,4.97
2018-07-17T08:35:21.428Z,4.87
2018-07-17T08:38:24.520Z,5.15
2018-07-17T08:41:27.381Z,4.95
2018-07-17T08:44:30.452Z,5.25
2018-07-17T08:47:33.542Z,4.40
2018-07-17T08:50:36.618Z,4.85
2018-07-17T08:53:39.677Z,5.28
2018-07-17T08:56:42.556Z,4.65
2018-07-17T08:59:45.629Z,5.05
2018-07-17T09:02:48.702Z,4.65
2018-07-17T09:05:51.832Z,4.53
2018-07-17T09:08:54.845Z,4.65
2018-07-17T09:11:57.909Z,4.50
2018-07-17T09:15:00.977Z,4.33
2018-07-17T09:18:04.045Z,4.08
2018-07-17T09:21:07.772Z,4.10
2018-07-17T09:24:10.822Z,3.98
2018-07-17T09:27:13.877Z,3.77
2018-07-17T09:30:16.778Z,4.23
2018-07-17T09:33:19.845Z,4.43
2018-07-17T09:36:22.924Z,3.87
2018-07-17T09:39:25.990Z,4.53
2018-07-17T09:42:29.049Z,3.90
2018-07-17T09:45:32.277Z,3.90
2018-07-17T09:48:35.337Z,4.60
2018-07-17T09:51:38.380Z,4.00
2018-07-17T09:54:41.454Z,4.03
2018-07-17T09:57:44.513Z,4.70
2018-07-17T10:00:52.974Z,4.60
2018-07-17T10:03:56.045Z,4.40
2018-07-17T10:06:59.096Z,4.40
2018-07-17T10:10:04.241Z,4.60
2018-07-17T10:13:07.356Z,4.67
2018-07-17T10:16:10.442Z,4.90
2018-07-17T10:19:13.521Z,4.50
2018-07-17T10:22:16.602Z,4.53
2018-07-17T10:25:19.710Z,4.40
2018-07-17T10:28:22.817Z,3.77
2018-07-17T10:31:25.864Z,4.10
2018-07-17T10:34:28.718Z,3.97
2018-07-17T10:37:31.774Z,3.90
2018-07-17T10:40:34.893Z,4.20
2018-07-17T10:43:37.965Z,4.20
2018-07-17T10:46:41.022Z,4.17
2018-07-17T10:49:44.081Z,4.30
2018-07-17T10:52:47.141Z,3.77
2018-07-17T10:55:50.257Z,4.77
2018-07-17T10:58:53.329Z,3.53
2018-07-17T11:01:56.409Z,3.70
2018-07-17T11:04:59.474Z,3.90
2018-07-17T11:08:02.525Z,3.77
2018-07-17T11:11:06.865Z,3.90
2018-07-17T11:14:09.756Z,3.73
2018-07-17T11:17:12.632Z,4.00
2018-07-17T11:20:15.605Z,3.13
2018-07-17T11:23:18.665Z,3.27
2018-07-17T11:26:21.849Z,3.10
2018-07-17T11:29:24.920Z,3.93
2018-07-17T11:32:27.971Z,2.90
2018-07-17T11:35:31.065Z,3.00
2018-07-17T11:38:34.277Z,3.03
2018-07-17T11:41:37.301Z,3.07
2018-07-17T11:44:40.454Z,2.60
2018-07-17T11:47:43.546Z,2.40
2018-07-17T11:50:46.593Z,2.70
2018-07-17T11:53:49.653Z,2.77
2018-07-17T11:56:52.722Z,2.77
2018-07-17T11:59:55.770Z,2.73
2018-07-17T12:02:58.909Z,2.57
2018-07-17T12:06:01.939Z,3.00
2018-07-17T12:09:06.529Z,2.87
2018-07-17T12:12:09.532Z,3.43
2018-07-17T12:15:12.612Z,2.80
2018-07-17T12:18:15.710Z,3.00
2018-07-17T12:21:18.557Z,3.20
2018-07-17T12:24:21.724Z,3.10
2018-07-17T12:27:24.793Z,3.30
2018-07-17T12:30:27.874Z,3.40
2018-07-17T12:33:30.712Z,3.20
2018-07-17T12:36:33.813Z,3.40
2018-07-17T12:39:36.877Z,3.50
2018-07-17T12:42:39.930Z,3.40
2018-07-17T12:45:43.194Z,3.50
2018-07-17T12:48:46.257Z,3.50
2018-07-17T12:51:49.329Z,3.73
2018-07-17T12:54:52.421Z,3.83
2018-07-17T12:57:55.462Z,3.10
2018-07-17T13:00:58.745Z,3.80
2018-07-17T13:04:01.818Z,3.60
2018-07-17T13:07:05.083Z,3.20
2018-07-17T13:10:07.928Z,3.50
2018-07-17T13:13:10.997Z,2.90
2018-07-17T13:16:14.085Z,3.60
2018-07-17T13:19:17.196Z,3.57
2018-07-17T13:22:20.262Z,3.10
2018-07-17T13:25:23.329Z,3.07
2018-07-17T13:28:26.401Z,3.07
2018-07-17T13:31:29.464Z,3.00
2018-07-17T13:34:32.519Z,3.57
2018-07-17T13:37:35.582Z,2.60
2018-07-17T13:40:38.645Z,2.87
2018-07-17T13:43:49.026Z,3.47
2018-07-17T13:46:52.007Z,3.73
2018-07-17T13:49:54.932Z,3.60
2018-07-17T13:52:58.142Z,4.00
2018-07-17T13:56:01.370Z,3.43
2018-07-17T13:59:04.516Z,4.13
2018-07-17T14:02:07.648Z,4.83
2018-07-17T14:05:14.663Z,4.00
2018-07-17T14:08:18.951Z,3.40
2018-07-17T14:11:22.006Z,3.47
2018-07-17T14:14:25.096Z,3.20
2018-07-17T14:17:28.199Z,3.93
2018-07-17T14:20:31.242Z,3.80
2018-07-17T14:23:34.377Z,3.80
2018-07-17T14:26:37.397Z,3.40
2018-07-17T14:29:40.441Z,3.60
2018-07-17T14:32:43.522Z,3.20
2018-07-17T14:35:46.672Z,3.77
2018-07-17T14:38:49.715Z,3.63
2018-07-17T14:41:52.785Z,3.70
2018-07-17T14:44:55.631Z,4.17
2018-07-17T14:47:58.686Z,6.67
2018-07-17T14:51:01.781Z,12.53
2018-07-17T14:54:04.873Z,4.10
2018-07-17T14:57:07.955Z,4.30
2018-07-17T15:00:11.638Z,4.27
2018-07-17T15:03:14.698Z,4.07
2018-07-17T15:06:17.775Z,4.30
2018-07-17T15:09:20.872Z,4.10
2018-07-17T15:12:23.956Z,4.23
2018-07-17T15:15:27.113Z,3.87
2018-07-17T15:18:30.113Z,4.20
2018-07-17T15:21:33.205Z,3.97
2018-07-17T15:24:36.257Z,4.20
2018-07-17T15:27:39.137Z,4.40
2018-07-17T15:30:42.201Z,5.00
2018-07-17T15:33:45.270Z,4.20
2018-07-17T15:36:48.342Z,4.00
2018-07-17T15:39:51.409Z,4.33
2018-07-17T15:42:54.470Z,4.57
2018-07-17T15:45:57.540Z,4.47
2018-07-17T15:49:00.690Z,4.53
2018-07-17T15:52:03.564Z,4.77
2018-07-17T15:55:06.644Z,4.07
2018-07-17T15:58:09.749Z,4.47
2018-07-17T16:01:12.829Z,4.50
2018-07-17T16:04:15.899Z,4.23
2018-07-17T16:07:18.957Z,4.57
2018-07-17T16:10:22.028Z,4.40
2018-07-17T16:13:25.021Z,5.20
2018-07-17T16:16:27.981Z,4.83
2018-07-17T16:19:31.061Z,4.10
2018-07-17T16:22:34.170Z,4.30
2018-07-17T16:25:37.229Z,4.60
2018-07-17T16:28:40.313Z,4.87
2018-07-17T16:31:43.474Z,5.23
2018-07-17T16:34:46.570Z,4.60
2018-07-17T16:37:49.624Z,4.50
2018-07-17T16:40:52.688Z,4.60
2018-07-17T16:43:55.773Z,5.40
2018-07-17T16:46:58.880Z,5.10
2018-07-17T16:50:02.080Z,7.20
2018-07-17T16:53:05.235Z,5.40
2018-07-17T16:56:08.309Z,4.97
2018-07-17T16:59:11.849Z,4.80
2018-07-17T17:02:14.940Z,4.70
2018-07-17T17:05:17.996Z,4.80
2018-07-17T17:08:21.090Z,5.57
2018-07-17T17:11:24.178Z,4.90
2018-07-17T17:14:27.262Z,5.80
2018-07-17T17:17:30.331Z,5.50
2018-07-17T17:20:33.393Z,5.97
2018-07-17T17:23:36.473Z,5.63
2018-07-17T17:26:39.580Z,6.23
2018-07-17T17:29:42.661Z,5.20
2018-07-17T17:32:45.793Z,5.60
2018-07-17T17:35:48.829Z,6.37
2018-07-17T17:38:51.907Z,8.97
2018-07-17T17:41:55.000Z,6.40
2018-07-17T17:44:58.101Z,6.67
2018-07-17T17:48:01.157Z,7.03
2018-07-17T17:51:04.232Z,6.60
2018-07-17T17:54:07.289Z,8.10
2018-07-17T17:57:10.313Z,7.90
2018-07-17T18:00:13.378Z,6.97
2018-07-17T18:03:16.576Z,7.00
2018-07-17T18:06:19.681Z,8.60
2018-07-17T18:09:22.741Z,8.13
2018-07-17T18:12:25.800Z,8.30
2018-07-17T18:15:28.873Z,6.20
2018-07-17T18:18:49.950Z,7.60
2018-07-17T18:21:53.211Z,34.00
2018-07-17T18:24:56.293Z,7.27
2018-07-17T18:27:59.430Z,7.13
2018-07-17T18:31:02.518Z,7.17
2018-07-17T18:34:05.970Z,7.57
2018-07-17T18:37:08.962Z,7.20
2018-07-17T18:40:12.046Z,7.33
2018-07-17T18:43:15.291Z,7.40
2018-07-17T18:46:18.369Z,6.90
2018-07-17T18:49:21.442Z,7.93
2018-07-17T18:52:24.511Z,7.83
2018-07-17T18:55:27.389Z,7.60
2018-07-17T18:58:30.443Z,8.67
2018-07-17T19:01:33.523Z,9.23
2018-07-17T19:04:36.601Z,8.70
2018-07-17T19:07:39.657Z,8.93
2018-07-17T19:10:42.735Z,8.23
2018-07-17T19:13:45.805Z,7.50
2018-07-17T19:16:48.935Z,7.90
2018-07-17T19:19:51.948Z,7.20
2018-07-17T19:22:55.028Z,6.50
2018-07-17T19:25:58.101Z,8.93
2018-07-17T19:29:00.960Z,7.60
2018-07-17T19:32:04.085Z,10.57
2018-07-17T19:35:07.197Z,7.60
2018-07-17T19:38:10.276Z,7.53
2018-07-17T19:41:13.313Z,6.60
2018-07-17T19:44:16.378Z,8.13
2018-07-17T19:47:19.510Z,7.00
2018-07-17T19:50:22.518Z,9.60
2018-07-17T19:53:25.674Z,9.87
2018-07-17T19:56:28.933Z,9.80
2018-07-17T19:59:31.989Z,10.50
2018-07-17T20:02:34.865Z,7.63
2018-07-17T20:05:37.933Z,7.63
2018-07-17T20:08:41.079Z,7.30
2018-07-17T20:11:44.118Z,6.53
2018-07-17T20:14:58.606Z,8.10
2018-07-17T20:18:01.693Z,13.43
2018-07-17T20:21:04.769Z,14.97
2018-07-17T20:24:07.841Z,11.47
2018-07-17T20:30:49.495Z,15.37
2018-07-17T20:33:52.677Z,9.07
2018-07-17T20:36:55.849Z,9.23
2018-07-17T20:39:58.961Z,9.13
2018-07-17T20:43:02.035Z,7.83
2018-07-17T20:46:05.249Z,6.97
2018-07-17T20:49:08.324Z,7.73
2018-07-17T20:52:11.421Z,8.33
2018-07-17T20:55:14.463Z,8.80
2018-07-17T20:58:17.529Z,6.97
2018-07-17T21:01:20.591Z,5.77
2018-07-17T21:04:23.650Z,6.07
2018-07-17T21:07:26.705Z,5.30
2018-07-17T21:10:29.774Z,5.60
2018-07-17T21:13:32.828Z,5.60
2018-07-17T21:16:35.898Z,5.50
2018-07-17T21:19:38.977Z,6.07
2018-07-17T21:22:41.855Z,5.67
2018-07-17T21:25:44.797Z,5.93
2018-07-17T21:28:47.884Z,5.70
2018-07-17T21:31:50.936Z,5.70
2018-07-17T21:34:53.857Z,5.90
2018-07-17T21:37:56.930Z,5.60
2018-07-17T21:41:00.001Z,5.40
2018-07-17T21:44:02.870Z,6.03
2018-07-17T21:47:05.930Z,5.43
2018-07-17T21:50:09.014Z,5.23
2018-07-17T21:53:12.085Z,5.57
2018-07-17T21:56:15.142Z,5.20
2018-07-17T21:59:18.206Z,5.63
2018-07-17T22:02:21.265Z,5.27
2018-07-17T22:05:24.342Z,5.20
2018-07-17T22:08:27.460Z,5.30
2018-07-17T22:11:30.538Z,5.33
2018-07-17T22:14:33.630Z,5.60
2018-07-17T22:17:36.711Z,5.33
2018-07-17T22:20:39.825Z,6.00
2018-07-17T22:23:42.897Z,5.53
2018-07-17T22:26:45.973Z,5.67
2018-07-17T22:29:49.044Z,5.60
2018-07-17T22:32:51.920Z,5.70
2018-07-17T22:35:55.000Z,5.37
2018-07-17T22:38:58.077Z,5.43
2018-07-17T22:42:01.134Z,4.93
2018-07-17T22:45:04.306Z,5.80
2018-07-17T22:48:07.389Z,5.20
2018-07-17T22:51:10.248Z,5.40
2018-07-17T22:54:13.449Z,5.90
2018-07-17T22:57:16.502Z,5.70
2018-07-17T23:00:19.624Z,5.60
2018-07-17T23:03:22.713Z,5.83
2018-07-17T23:06:25.760Z,5.80
2018-07-17T23:09:28.829Z,5.43
2018-07-17T23:12:31.904Z,5.90
2018-07-17T23:15:34.993Z,5.73
2018-07-17T23:18:38.070Z,5.50
2018-07-17T23:21:41.164Z,5.63
2018-07-17T23:24:44.924Z,5.87
2018-07-17T23:27:47.989Z,5.70
2018-07-17T23:30:50.865Z,5.63
2018-07-17T23:33:53.947Z,5.67
2018-07-17T23:36:57.043Z,5.60
2018-07-17T23:40:00.098Z,5.53
2018-07-17T23:43:03.150Z,5.80
2018-07-17T23:46:06.218Z,5.47
2018-07-17T23:49:13.793Z,6.23
2018-07-17T23:52:16.852Z,6.70
2018-07-17T23:55:19.946Z,6.23
2018-07-17T23:58:23.013Z,6.90
